X  Blizu METAR Podaci o vazduhoplovstvu     EGNS Isle of Man Airport
Temperatura
11°C Temperatura
10°C Tačka Rose
94% Vlaga



Vetar
4 M/S
10 MPS
16 KM/S
9 Čvorovi



210°
JJZ
Trenutna situacija

Delimično oblačno Delimično oblačno
Vazdušni pritisak 1010.84 (hPa) - 29.85 (inHg)
Vidljivost 6 (Milje) - 9.7 (km)
Aerodrom
Aerodromski kod. EGNS

Lokacija: Isle of Man Airport
Udaljenost: 18 (km)

Metar:
EGNS 272050Z 21009KT 9999 FEW009 11/10 Q1011

Vreme: 27-05-2024 21:50 BST